Time;durP1;ratioP1;P1;durP2;ratioP2;P2;SDS_P1;SDS_P2;PMS_P1;PMS_P2;Temp;Humidity;BMP_temperature;BMP_pressure;BME280_temperature;BME280_humidity;BME280_pressure;Samples;Min_cycle;Max_cycle;Signal;HPM_P1;HPM_P2
2020/12/26 00:01:10;;;;;;;;;;;;;;;4.32;67.80;96371.59;1795515;78;21089;-55
2020/12/26 00:03:39;;;;;;;8.08;6.65;;;;;;;4.28;67.96;96378.27;1807252;79;20209;-54
2020/12/26 00:06:07;;;;;;;8.53;6.92;;;;;;;4.24;67.99;96378.41;1807276;79;21101;-54
2020/12/26 00:08:37;;;;;;;;;;;;;;;4.20;67.91;96387.16;1796264;78;21619;-54
2020/12/26 00:11:09;;;;;;;9.48;7.58;;;;;;;4.14;68.09;96386.63;1778927;79;22223;-55
2020/12/26 00:13:37;;;;;;;11.40;7.35;;;;;;;4.10;68.18;96386.41;1790808;79;21112;-55
2020/12/26 00:16:06;;;;;;;9.25;6.47;;;;;;;4.04;68.35;96396.03;1781701;78;21132;-55
2020/12/26 00:18:35;;;;;;;9.25;7.17;;;;;;;4.01;68.47;96394.07;1766668;80;21116;-56
2020/12/26 00:21:06;;;;;;;10.20;7.25;;;;;;;4.02;68.67;96404.73;1778004;79;21599;-55
2020/12/26 00:23:33;;;;;;;8.58;7.08;;;;;;;4.02;68.79;96401.70;1815738;78;21904;-55
2020/12/26 00:26:01;;;;;;;8.33;6.95;;;;;;;4.04;68.53;96397.32;1806982;78;21069;-56
2020/12/26 00:28:29;;;;;;;10.20;6.90;;;;;;;4.03;68.54;96401.27;1807096;79;21069;-55
2020/12/26 00:30:57;;;;;;;8.17;6.70;;;;;;;4.03;68.53;96402.56;1808805;78;21306;-55
2020/12/26 00:33:25;;;;;;;9.28;7.33;;;;;;;4.02;68.29;96405.55;1781835;79;21129;-55
2020/12/26 00:35:53;;;;;;;11.88;7.17;;;;;;;3.97;68.14;96403.66;1793146;80;23625;-55
2020/12/26 00:38:20;;;;;;;7.62;6.42;;;;;;;3.92;68.34;96411.21;1787676;79;21050;-55
2020/12/26 00:40:48;;;;;;;8.00;6.03;;;;;;;3.91;68.43;96414.20;1816123;78;21033;-55
2020/12/26 00:43:16;;;;;;;7.67;6.20;;;;;;;3.97;68.23;96410.08;1814140;78;21144;-55
2020/12/26 00:45:44;;;;;;;7.30;6.25;;;;;;;3.99;68.27;96406.16;1791717;79;21077;-54
2020/12/26 00:48:13;;;;;;;7.28;6.17;;;;;;;3.99;68.14;96404.41;1802488;78;22337;-54
2020/12/26 00:50:41;;;;;;;6.87;6.10;;;;;;;3.96;68.04;96409.69;1780766;79;21657;-54
2020/12/26 00:53:09;;;;;;;7.83;6.60;;;;;;;3.93;67.76;96404.73;1796165;79;21059;-54
2020/12/26 00:55:37;;;;;;;6.67;5.70;;;;;;;3.89;67.67;96407.50;1793148;79;21557;-54
2020/12/26 00:58:05;;;;;;;8.50;6.45;;;;;;;3.80;67.40;96402.33;1779483;78;21172;-54
2020/12/26 01:00:33;;;;;;;9.48;6.47;;;;;;;3.72;67.73;96412.97;1797399;78;23608;-55
2020/12/26 01:03:02;;;;;;;6.97;5.92;;;;;;;3.71;67.85;96406.62;1800019;79;21109;-54
2020/12/26 01:05:32;;;;;;;7.50;6.10;;;;;;;3.73;67.55;96409.94;1778516;80;21085;-54
2020/12/26 01:08:00;;;;;;;8.83;5.95;;;;;;;3.67;67.86;96409.32;1807278;79;21132;-54
2020/12/26 01:10:28;;;;;;;8.13;5.90;;;;;;;3.73;67.95;96411.22;1807743;79;21240;-54
2020/12/26 01:12:55;;;;;;;6.92;6.20;;;;;;;3.77;67.87;96406.34;1806249;79;21553;-54
2020/12/26 01:15:23;;;;;;;9.28;6.40;;;;;;;3.82;67.83;96405.22;1800025;78;21176;-55
2020/12/26 01:17:51;;;;;;;8.48;6.60;;;;;;;3.88;67.74;96400.23;1788710;79;21093;-55
2020/12/26 01:20:19;;;;;;;8.63;6.25;;;;;;;3.91;67.59;96403.94;1792956;80;21049;-55
2020/12/26 01:22:47;;;;;;;9.28;6.30;;;;;;;3.90;67.46;96398.45;1792629;79;21565;-55
2020/12/26 01:25:15;;;;;;;7.80;6.40;;;;;;;3.92;67.25;96403.52;1822474;78;21212;-55
2020/12/26 01:27:43;;;;;;;9.50;6.22;;;;;;;3.93;67.20;96409.00;1780633;79;21080;-54
2020/12/26 01:30:10;;;;;;;7.92;6.35;;;;;;;3.94;67.36;96402.52;1800706;78;21632;-54
2020/12/26 01:32:38;;;;;;;6.45;5.80;;;;;;;3.96;67.33;96403.73;1799731;79;21502;-55
2020/12/26 01:35:06;;;;;;;7.35;5.67;;;;;;;3.97;67.16;96407.97;1788526;79;21138;-55
2020/12/26 01:37:34;;;;;;;7.80;5.17;;;;;;;3.94;66.86;96410.22;1793778;79;21375;-54
2020/12/26 01:40:02;;;;;;;7.83;5.37;;;;;;;3.95;66.69;96410.61;1806191;79;21073;-55
2020/12/26 01:42:31;;;;;;;6.17;5.33;;;;;;;3.95;66.69;96407.22;1818193;78;21068;-55
2020/12/26 01:44:59;;;;;;;6.55;5.72;;;;;;;3.98;66.64;96403.20;1780661;79;21117;-55
2020/12/26 01:47:26;;;;;;;7.55;6.00;;;;;;;4.02;66.59;96412.44;1789309;79;21110;-54
2020/12/26 01:49:54;;;;;;;6.33;5.33;;;;;;;4.04;66.55;96402.91;1776576;79;23618;-54
2020/12/26 01:52:23;;;;;;;6.33;5.70;;;;;;;4.07;66.40;96412.23;1792162;78;21485;-54
2020/12/26 01:54:53;;;;;;;7.37;6.15;;;;;;;4.08;66.40;96407.02;1811198;78;21078;-54
2020/12/26 01:57:23;;;;;;;7.53;6.40;;;;;;;4.11;66.56;96415.86;1763840;78;21161;-54
2020/12/26 01:59:51;;;;;;;8.23;6.90;;;;;;;4.06;66.83;96415.22;1792250;78;21153;-54
2020/12/26 02:02:19;;;;;;;8.73;6.37;;;;;;;4.00;67.18;96415.53;1763670;80;21389;-54
2020/12/26 02:04:46;;;;;;;7.20;6.33;;;;;;;3.98;67.38;96423.31;1780826;80;21925;-54
2020/12/26 02:07:14;;;;;;;7.28;5.60;;;;;;;3.95;67.63;96423.91;1756810;80;21541;-54
2020/12/26 02:09:42;;;;;;;6.22;5.62;;;;;;;3.98;67.73;96416.89;1780818;80;21102;-55
2020/12/26 02:12:09;;;;;;;6.97;6.08;;;;;;;4.02;67.79;96426.56;1777041;79;21486;-54
2020/12/26 02:14:46;;;;;;;8.43;6.20;;;;;;;4.02;67.84;96428.66;1817643;78;21752;-55
2020/12/26 02:17:14;;;;;;;7.97;6.28;;;;;;;4.02;67.85;96430.41;1793548;79;21132;-54
2020/12/26 02:19:42;;;;;;;7.50;6.55;;;;;;;4.02;67.81;96436.36;1789439;79;21073;-54
2020/12/26 02:22:10;;;;;;;7.65;6.40;;;;;;;4.04;67.85;96440.97;1791972;78;21054;-54
2020/12/26 02:24:38;;;;;;;8.45;7.17;;;;;;;4.05;67.80;96443.10;1790494;79;21065;-54
2020/12/26 02:27:05;;;;;;;9.10;7.08;;;;;;;4.05;67.82;96454.20;1796169;79;21249;-55
2020/12/26 02:29:33;;;;;;;9.43;7.77;;;;;;;4.03;67.84;96455.19;1800719;79;21165;-55
2020/12/26 02:32:03;;;;;;;9.90;7.67;;;;;;;3.99;68.03;96458.33;1766542;79;21045;-55
2020/12/26 02:34:31;;;;;;;10.00;7.92;;;;;;;3.97;67.99;96457.58;1815993;79;21486;-54
2020/12/26 02:36:59;;;;;;;9.50;6.78;;;;;;;3.96;67.86;96460.20;1793340;79;21049;-55
2020/12/26 02:39:26;;;;;;;8.73;6.28;;;;;;;3.94;68.00;96461.56;1806338;79;21839;-55
2020/12/26 02:41:54;;;;;;;8.20;7.05;;;;;;;3.93;68.11;96462.48;1800475;79;21120;-54
2020/12/26 02:44:22;;;;;;;8.70;7.15;;;;;;;3.94;67.93;96458.17;1819457;78;21058;-55
2020/12/26 02:46:51;;;;;;;10.00;7.60;;;;;;;3.91;67.82;96462.98;1788242;79;21161;-54
2020/12/26 02:49:19;;;;;;;;;;;;;;;3.88;67.59;96460.55;1792539;78;21465;-55
2020/12/26 02:51:47;;;;;;;10.30;7.10;;;;;;;3.84;67.62;96455.20;1808825;78;22277;-54
2020/12/26 02:54:15;;;;;;;8.98;7.20;;;;;;;3.79;67.66;96450.27;1791955;79;21136;-54
2020/12/26 02:56:43;;;;;;;10.20;6.65;;;;;;;3.77;67.34;96459.77;1766997;79;21179;-54
2020/12/26 02:59:11;;;;;;;9.43;7.47;;;;;;;3.73;67.39;96461.27;1795729;78;21062;-55
2020/12/26 03:01:41;;;;;;;8.15;6.62;;;;;;;3.72;67.40;96455.31;1768468;80;21072;-54
2020/12/26 03:04:09;;;;;;;8.15;6.65;;;;;;;3.72;67.27;96464.29;1777536;80;22223;-54
2020/12/26 03:06:37;;;;;;;7.15;6.05;;;;;;;3.73;67.17;96466.39;1793086;80;21132;-54
2020/12/26 03:09:05;;;;;;;8.10;6.62;;;;;;;3.76;66.98;96472.22;1793277;78;21588;-54
2020/12/26 03:11:33;;;;;;;7.95;6.47;;;;;;;3.76;66.75;96464.98;1784515;79;21196;-54
2020/12/26 03:14:01;;;;;;;8.23;6.42;;;;;;;3.74;66.68;96463.77;1831479;78;21052;-54
2020/12/26 03:16:28;;;;;;;8.13;6.58;;;;;;;3.72;66.55;96460.44;1800457;79;21145;-55
2020/12/26 03:18:56;;;;;;;10.35;7.10;;;;;;;3.70;66.51;96463.53;1817407;79;21945;-54
2020/12/26 03:21:23;;;;;;;10.70;7.25;;;;;;;3.72;66.51;96468.14;1816408;78;21179;-54
2020/12/26 03:23:51;;;;;;;8.85;7.10;;;;;;;3.73;66.30;96466.39;1807918;79;21064;-54
2020/12/26 03:26:18;;;;;;;7.58;6.45;;;;;;;3.69;66.30;96461.39;1823195;78;21061;-54
2020/12/26 03:28:46;;;;;;;7.95;6.62;;;;;;;3.71;66.38;96464.36;1808242;79;21435;-54
2020/12/26 03:31:14;;;;;;;8.90;6.53;;;;;;;3.70;66.30;96457.12;1809158;78;21203;-54
2020/12/26 03:33:41;;;;;;;9.55;6.90;;;;;;;3.71;66.19;96458.77;1816204;78;21054;-54
2020/12/26 03:36:10;;;;;;;;;;;;;;;3.70;65.93;96460.97;1804877;78;21077;-54
2020/12/26 03:38:38;;;;;;;7.60;6.35;;;;;;;3.66;65.97;96462.81;1805452;78;20236;-54
2020/12/26 03:41:05;;;;;;;9.15;6.92;;;;;;;3.65;66.05;96455.19;1731178;78;21151;-54
2020/12/26 03:43:33;;;;;;;9.85;7.30;;;;;;;3.66;66.11;96460.25;1805584;79;21156;-53
2020/12/26 03:46:01;;;;;;;8.83;6.90;;;;;;;3.65;66.03;96459.03;1822686;78;21049;-54
2020/12/26 03:48:28;;;;;;;7.75;6.37;;;;;;;3.58;65.96;96464.89;1786414;79;21237;-53
2020/12/26 03:50:56;;;;;;;8.85;6.33;;;;;;;3.55;66.28;96463.74;1795583;79;21108;-53
2020/12/26 03:53:23;;;;;;;10.03;7.22;;;;;;;3.56;66.34;96465.42;1793961;79;21843;-53
2020/12/26 03:55:51;;;;;;;10.98;7.17;;;;;;;3.56;66.37;96469.27;1827441;78;21503;-54
2020/12/26 03:58:19;;;;;;;9.55;7.37;;;;;;;3.57;66.44;96461.97;1810366;78;21073;-54
2020/12/26 04:00:47;;;;;;;9.40;6.60;;;;;;;3.62;66.24;96462.59;1815001;78;21112;-54
2020/12/26 04:03:14;;;;;;;7.50;6.67;;;;;;;3.61;65.93;96460.09;1776190;79;21791;-54
2020/12/26 04:05:42;;;;;;;9.35;6.67;;;;;;;3.58;65.81;96461.04;1801328;79;21368;-54
2020/12/26 04:08:10;;;;;;;8.55;6.47;;;;;;;3.58;65.84;96455.91;1802683;78;21080;-54
2020/12/26 04:10:38;;;;;;;9.88;6.70;;;;;;;3.52;65.58;96453.64;1801367;78;21648;-53
2020/12/26 04:13:05;;;;;;;7.42;6.42;;;;;;;3.44;65.81;96455.25;1815512;79;21160;-54
2020/12/26 04:15:34;;;;;;;7.60;6.42;;;;;;;3.41;65.88;96456.67;1795780;79;21101;-54
2020/12/26 04:18:01;;;;;;;9.68;5.87;;;;;;;3.42;65.95;96454.50;1805931;79;22091;-54
2020/12/26 04:20:29;;;;;;;9.00;5.75;;;;;;;3.48;65.87;96458.52;1814267;79;21612;-54
2020/12/26 04:22:57;;;;;;;8.25;6.10;;;;;;;3.53;65.91;96464.73;1815497;79;21113;-54
2020/12/26 04:25:25;;;;;;;8.05;6.22;;;;;;;3.57;65.71;96462.39;1814957;79;21124;-54
2020/12/26 04:27:53;;;;;;;6.47;5.83;;;;;;;3.59;65.34;96468.31;1806578;78;21081;-56
2020/12/26 04:30:21;;;;;;;10.07;6.60;;;;;;;3.58;65.23;96472.59;1800065;79;21514;-53
2020/12/26 04:32:49;;;;;;;7.53;6.17;;;;;;;3.56;65.18;96471.01;1791827;79;21100;-53
2020/12/26 04:35:20;;;;;;;8.25;6.30;;;;;;;3.52;65.14;96461.34;1801488;78;21109;-54
2020/12/26 04:37:49;;;;;;;7.12;6.17;;;;;;;3.51;65.18;96466.08;1819850;78;21054;-54
2020/12/26 04:40:16;;;;;;;7.55;6.08;;;;;;;3.47;65.18;96465.38;1799150;78;21124;-56
2020/12/26 04:42:44;;;;;;;8.63;6.28;;;;;;;3.46;65.20;96468.84;1785775;79;21382;-54
2020/12/26 04:45:13;;;;;;;7.00;5.83;;;;;;;3.45;64.95;96472.75;1761987;79;21072;-54
2020/12/26 04:47:45;;;;;;;8.23;5.97;;;;;;;3.41;65.02;96469.95;1791206;79;21084;-54
2020/12/26 04:50:14;;;;;;;9.63;5.90;;;;;;;3.41;65.13;96477.19;1788858;79;21148;-54
2020/12/26 04:52:46;;;;;;;6.95;5.17;;;;;;;3.40;65.08;96479.36;1814591;78;21073;-54
2020/12/26 04:55:13;;;;;;;6.97;5.42;;;;;;;3.42;64.86;96481.44;1799965;78;22172;-54
2020/12/26 04:57:41;;;;;;;6.83;4.65;;;;;;;3.46;64.70;96484.69;1761970;79;21491;-55
2020/12/26 05:00:09;;;;;;;5.80;5.20;;;;;;;3.49;64.30;96479.43;1791499;78;21081;-55
2020/12/26 05:02:42;;;;;;;8.45;6.30;;;;;;;3.52;64.01;96481.86;1798415;79;21362;-55
2020/12/26 05:05:11;;;;;;;10.72;7.97;;;;;;;3.56;64.12;96494.09;1785254;79;21042;-55
2020/12/26 05:07:40;;;;;;;14.33;9.63;;;;;;;3.60;64.11;96504.16;1805491;79;21077;-55
2020/12/26 05:10:08;;;;;;;14.10;9.48;;;;;;;3.60;63.94;96499.46;1811847;78;21148;-55
2020/12/26 05:12:36;;;;;;;14.60;9.17;;;;;;;3.57;64.14;96495.75;1789890;79;21113;-55
2020/12/26 05:15:05;;;;;;;17.00;10.78;;;;;;;3.57;64.16;96491.89;1784610;79;21116;-55
2020/12/26 05:17:33;;;;;;;22.58;12.70;;;;;;;3.57;64.19;96491.47;1736452;80;21175;-55
2020/12/26 05:20:01;;;;;;;21.80;13.85;;;;;;;3.57;64.25;96482.48;1782209;79;22023;-55
2020/12/26 05:22:30;;;;;;;19.90;12.18;;;;;;;3.57;64.35;96487.62;1743896;80;21102;-54
2020/12/26 05:25:08;;;;;;;14.07;9.75;;;;;;;3.57;64.38;96495.75;1794005;78;21072;-55
2020/12/26 05:27:36;;;;;;;13.38;7.70;;;;;;;3.54;64.06;96492.88;1786310;79;21149;-55
2020/12/26 05:30:06;;;;;;;9.85;7.03;;;;;;;3.53;63.77;96487.81;1782496;79;21209;-55
2020/12/26 05:32:35;;;;;;;9.00;7.03;;;;;;;3.52;63.55;96502.39;1785539;79;22111;-54
2020/12/26 05:35:07;;;;;;;9.18;6.80;;;;;;;3.50;63.61;96504.16;1777531;79;21069;-55
2020/12/26 05:37:35;;;;;;;11.75;7.60;;;;;;;3.50;63.67;96502.45;1795621;78;21148;-55
2020/12/26 05:40:04;;;;;;;9.98;7.10;;;;;;;3.47;63.51;96509.42;1794122;78;21461;-56
2020/12/26 05:42:32;;;;;;;10.55;7.70;;;;;;;3.42;63.66;96517.34;1821230;77;21451;-55
2020/12/26 05:45:10;;;;;;;10.15;7.60;;;;;;;3.38;63.53;96509.84;1805970;78;21428;-55
2020/12/26 05:47:38;;;;;;;10.10;6.87;;;;;;;3.35;63.66;96512.53;1789714;80;21069;-55
2020/12/26 05:50:05;;;;;;;10.13;7.10;;;;;;;3.37;63.79;96512.86;1790342;78;21556;-55
2020/12/26 05:52:35;;;;;;;9.93;7.37;;;;;;;3.41;63.57;96516.95;1773498;78;21124;-55
2020/12/26 05:55:08;;;;;;;11.70;8.03;;;;;;;3.47;63.55;96524.81;1736686;78;21053;-55
2020/12/26 05:57:36;;;;;;;12.58;8.95;;;;;;;3.50;63.36;96528.53;1791459;78;22336;-54
2020/12/26 06:00:04;;;;;;;14.30;9.97;;;;;;;3.53;63.38;96527.13;1796730;78;21181;-56
2020/12/26 06:02:33;;;;;;;14.23;9.95;;;;;;;3.56;63.40;96524.89;1790141;80;21179;-56
2020/12/26 06:05:03;;;;;;;15.55;10.18;;;;;;;3.61;63.31;96525.52;1789747;80;22008;-54
2020/12/26 06:07:35;;;;;;;14.47;9.75;;;;;;;3.66;63.39;96532.09;1798932;79;21042;-54
2020/12/26 06:10:06;;;;;;;13.98;9.48;;;;;;;3.70;63.15;96531.53;1786658;79;22103;-54
2020/12/26 06:12:33;;;;;;;13.65;9.20;;;;;;;3.69;63.00;96533.25;1786464;79;21597;-54
2020/12/26 06:15:01;;;;;;;13.88;9.45;;;;;;;3.69;63.06;96538.38;1751112;79;21118;-54
2020/12/26 06:17:32;;;;;;;11.08;8.30;;;;;;;3.71;63.05;96533.64;1792155;79;21074;-54
2020/12/26 06:20:07;;;;;;;13.38;9.63;;;;;;;3.69;62.96;96534.53;1795116;80;21042;-55
2020/12/26 06:22:50;;;;;;;13.10;8.68;;;;;;;3.59;62.72;96543.53;1799904;79;22155;-55
2020/12/26 06:25:22;;;;;;;13.83;9.33;;;;;;;3.47;63.31;96551.75;1791066;79;21200;-55
2020/12/26 06:28:00;;;;;;;11.22;8.08;;;;;;;3.44;63.70;96561.70;1805001;78;21065;-55
2020/12/26 06:30:29;;;;;;;12.18;8.53;;;;;;;3.44;63.64;96557.03;1792864;79;21041;-54
2020/12/26 06:32:57;;;;;;;11.00;7.47;;;;;;;3.36;63.96;96550.12;1753944;80;21107;-55
2020/12/26 06:35:26;;;;;;;9.15;7.50;;;;;;;3.31;64.29;96546.45;1784620;79;21373;-55
2020/12/26 06:38:17;;;;;;;13.30;8.80;;;;;;;3.37;64.42;96553.90;1791232;79;21153;-54
2020/12/26 06:41:17;;;;;;;11.83;8.25;;;;;;;3.42;64.78;96563.52;1783882;79;21184;-55
2020/12/26 06:43:53;;;;;;;10.00;7.62;;;;;;;3.49;64.93;96573.88;1809775;78;21144;-55
2020/12/26 06:46:27;;;;;;;10.23;7.62;;;;;;;3.54;65.00;96575.44;1732504;80;37960;-55
2020/12/26 06:48:57;;;;;;;8.63;7.17;;;;;;;3.55;65.07;96587.34;1794864;80;21200;-55
2020/12/26 06:51:36;;;;;;;8.30;6.67;;;;;;;3.49;65.19;96596.97;1800103;78;21096;-55
2020/12/26 06:54:07;;;;;;;10.10;7.00;;;;;;;3.48;65.28;96608.13;1807612;78;21120;-55
2020/12/26 06:57:02;;;;;;;10.18;8.23;;;;;;;3.42;65.12;96616.09;1811203;78;21169;-55
2020/12/26 06:59:34;;;;;;;12.25;8.95;;;;;;;3.33;65.62;96614.36;1805731;78;21045;-55
2020/12/26 07:02:09;;;;;;;9.95;7.47;;;;;;;3.21;65.85;96615.24;1798040;79;21323;-55
2020/12/26 07:04:44;;;;;;;9.47;7.00;;;;;;;3.13;66.51;96610.41;1877569;75;26528;-54
2020/12/26 07:07:12;;;;;;;13.45;8.40;;;;;;;3.06;66.67;96615.42;1838876;77;20930;-55
2020/12/26 07:09:46;;;;;;;;;;;;;;;2.97;67.05;96626.02;1849351;77;20923;-55
2020/12/26 07:12:15;;;;;;;10.82;8.03;;;;;;;2.93;67.45;96627.88;1834146;77;20102;-57
2020/12/26 07:14:48;;;;;;;10.85;8.58;;;;;;;2.93;67.71;96632.18;1848194;77;21467;-54
2020/12/26 07:17:25;;;;;;;11.73;8.03;;;;;;;2.91;67.84;96631.38;1782100;77;21053;-55
2020/12/26 07:19:58;;;;;;;10.53;6.75;;;;;;;2.92;67.94;96639.02;1840288;77;21038;-56
2020/12/26 07:22:29;;;;;;;10.72;6.08;;;;;;;2.97;67.89;96638.02;1839464;77;21195;-56
2020/12/26 07:25:07;;;;;;;14.30;6.72;;;;;;;2.95;66.89;96644.02;1825741;77;21576;-55
2020/12/26 07:27:44;;;;;;;9.63;5.28;;;;;;;2.85;66.43;96645.74;1849947;77;21037;-55
2020/12/26 07:30:17;;;;;;;7.00;4.95;;;;;;;2.77;66.13;96639.63;1848047;77;21049;-56
2020/12/26 07:32:51;;;;;;;13.25;6.70;;;;;;;2.69;65.69;96644.20;1838792;77;21203;-55
2020/12/26 07:35:27;;;;;;;7.08;4.95;;;;;;;2.58;65.82;96642.89;1797020;77;21374;-55
2020/12/26 07:38:05;;;;;;;7.17;4.55;;;;;;;2.52;65.84;96646.96;1780486;80;21533;-55
2020/12/26 07:40:39;;;;;;;7.95;4.15;;;;;;;2.45;66.04;96653.22;1766848;79;21478;-55
2020/12/26 07:43:11;;;;;;;6.60;4.17;;;;;;;2.43;66.21;96655.43;1817169;77;21616;-57
2020/12/26 07:45:42;;;;;;;8.33;5.35;;;;;;;2.41;66.31;96663.63;1816616;79;21564;-55
2020/12/26 07:48:11;;;;;;;7.62;5.05;;;;;;;2.41;66.43;96667.47;1837891;77;21365;-55
2020/12/26 07:50:41;;;;;;;11.95;6.20;;;;;;;2.33;66.48;96651.92;1818574;77;21549;-57
2020/12/26 07:53:12;;;;;;;7.42;4.97;;;;;;;2.31;66.93;96668.25;1802299;78;21167;-55
2020/12/26 07:55:40;;;;;;;11.73;7.47;;;;;;;2.30;67.03;96671.27;1791922;78;21596;-56
2020/12/26 07:58:14;;;;;;;15.58;8.80;;;;;;;2.34;66.97;96677.10;1791855;79;21115;-56
2020/12/26 08:00:44;;;;;;;16.12;9.03;;;;;;;2.38;67.17;96678.64;1747929;78;21420;-56
2020/12/26 08:03:13;;;;;;;14.28;7.65;;;;;;;2.47;67.44;96682.16;1838618;78;21461;-55
2020/12/26 08:05:48;;;;;;;11.53;6.53;;;;;;;2.57;67.41;96687.78;1836951;78;21077;-55
2020/12/26 08:08:27;;;;;;;11.78;6.40;;;;;;;2.64;67.48;96694.33;1811671;78;21569;-55
2020/12/26 08:10:58;;;;;;;7.67;5.37;;;;;;;2.70;67.26;96696.67;1835663;78;21047;-56
2020/12/26 08:13:33;;;;;;;8.18;4.87;;;;;;;2.75;67.24;96692.66;1805409;78;21166;-56
2020/12/26 08:16:03;;;;;;;6.92;4.87;;;;;;;2.78;66.83;96698.10;1798630;78;21111;-55
2020/12/26 08:18:33;;;;;;;14.20;7.30;;;;;;;2.80;66.69;96701.47;1819171;78;20982;-55
2020/12/26 08:21:06;;;;;;;11.68;6.45;;;;;;;2.80;66.67;96711.72;1808296;78;21057;-57
2020/12/26 08:23:33;;;;;;;10.25;6.50;;;;;;;2.83;66.67;96714.99;1808867;78;21062;-55
2020/12/26 08:26:04;;;;;;;12.43;5.80;;;;;;;2.88;66.64;96713.09;1745465;80;21207;-57
2020/12/26 08:28:36;;;;;;;9.80;6.37;;;;;;;2.96;66.63;96721.78;1782308;80;21081;-56
2020/12/26 08:31:04;;;;;;;8.00;5.62;;;;;;;3.02;66.42;96718.95;1813526;78;21131;-57
2020/12/26 08:33:37;;;;;;;6.63;5.37;;;;;;;3.08;66.31;96730.72;1783337;78;21168;-57
2020/12/26 08:36:23;;;;;;;7.78;5.95;;;;;;;3.11;66.14;96734.45;1780759;78;21474;-56
2020/12/26 08:38:59;;;;;;;6.67;5.60;;;;;;;3.15;66.33;96739.02;1838243;78;21242;-55
2020/12/26 08:41:30;;;;;;;7.17;5.72;;;;;;;3.22;66.17;96740.43;1838156;78;21117;-55
2020/12/26 08:43:58;;;;;;;5.83;5.10;;;;;;;3.24;65.97;96749.75;1785462;78;21133;-56
2020/12/26 08:46:26;;;;;;;7.30;5.80;;;;;;;3.20;65.44;96752.48;1838479;78;21058;-55
2020/12/26 08:51:32;;;;;;;7.87;6.50;;;;;;;2.96;66.36;96744.84;1839096;75;27508;-55
2020/12/26 08:54:00;;;;;;;8.93;6.00;;;;;;;2.92;66.57;96745.38;1689860;81;22237;-56
2020/12/26 08:56:35;;;;;;;8.17;6.17;;;;;;;3.01;66.41;96756.19;1751303;82;22147;-57
2020/12/26 08:59:05;;;;;;;8.65;5.87;;;;;;;3.09;66.12;96762.72;1749044;82;21152;-56
2020/12/26 09:01:34;;;;;;;11.30;6.47;;;;;;;3.18;65.82;96777.36;1751338;82;21147;-55
2020/12/26 09:04:04;;;;;;;6.83;6.12;;;;;;;3.24;65.67;96777.95;1748431;82;21092;-56
2020/12/26 09:09:22;;;;;;;6.47;5.00;;;;;;;3.31;64.83;96767.02;1865595;76;26998;-55
2020/12/26 09:12:06;;;;;;;8.20;5.45;;;;;;;3.16;64.77;96767.58;1834238;78;21562;-56
2020/12/26 09:14:33;;;;;;;10.18;6.25;;;;;;;3.11;64.98;96774.19;1827204;78;21357;-56
2020/12/26 09:17:02;;;;;;;5.92;5.08;;;;;;;3.06;65.03;96770.52;1808618;78;21492;-56
2020/12/26 09:19:44;;;;;;;5.85;4.90;;;;;;;3.01;65.15;96770.28;1816802;78;21483;-56
2020/12/26 09:22:12;;;;;;;7.00;4.92;;;;;;;3.00;65.34;96770.73;1817000;78;21050;-56
2020/12/26 09:24:40;;;;;;;5.05;4.55;;;;;;;3.01;65.34;96774.12;1811205;78;21059;-55
2020/12/26 09:27:23;;;;;;;4.62;4.17;;;;;;;3.04;65.57;96776.58;1841664;78;21184;-55
2020/12/26 09:30:05;;;;;;;5.67;4.90;;;;;;;3.08;65.32;96787.95;1841560;78;20878;-55
2020/12/26 09:32:33;;;;;;;5.17;4.62;;;;;;;3.06;65.34;96780.77;1819738;78;21063;-54
2020/12/26 09:35:00;;;;;;;5.28;4.78;;;;;;;3.08;65.42;96784.11;1827717;78;21055;-54
2020/12/26 09:37:28;;;;;;;6.05;5.33;;;;;;;3.11;65.48;96781.43;1811814;78;21154;-54
2020/12/26 09:39:56;;;;;;;6.80;5.60;;;;;;;3.17;65.48;96786.76;1810246;78;21066;-55
2020/12/26 09:42:25;;;;;;;6.00;5.15;;;;;;;3.21;65.38;96776.79;1808618;78;21071;-55
2020/12/26 09:44:52;;;;;;;6.45;5.20;;;;;;;3.24;65.27;96780.95;1808467;78;21043;-56
2020/12/26 09:47:20;;;;;;;5.33;4.60;;;;;;;3.29;65.18;96782.91;1808565;78;21122;-56
2020/12/26 09:49:48;;;;;;;5.25;4.75;;;;;;;3.30;64.59;96777.70;1836611;78;21542;-56
2020/12/26 09:52:16;;;;;;;7.45;4.75;;;;;;;3.23;64.78;96781.86;1784222;79;21507;-55
2020/12/26 09:54:44;;;;;;;6.83;5.42;;;;;;;3.24;65.02;96782.23;1807192;78;21079;-56
2020/12/26 09:57:11;;;;;;;6.85;5.35;;;;;;;3.22;65.00;96783.57;1811452;78;21043;-55
2020/12/26 09:59:40;;;;;;;8.40;6.45;;;;;;;3.12;65.27;96786.95;1808388;79;21091;-55
2020/12/26 10:02:09;;;;;;;6.42;5.17;;;;;;;3.12;65.42;96785.67;1808610;79;21103;-55
2020/12/26 10:04:38;;;;;;;7.22;5.10;;;;;;;3.13;65.29;96785.22;1820250;78;21342;-55
2020/12/26 10:07:06;;;;;;;7.47;5.58;;;;;;;3.05;65.37;96776.98;1808330;79;21173;-55
2020/12/26 10:09:33;;;;;;;7.15;5.70;;;;;;;2.95;65.59;96776.48;1766209;81;21461;-55
2020/12/26 10:12:01;;;;;;;8.53;5.70;;;;;;;2.90;66.11;96765.12;1748960;81;21088;-54
2020/12/26 10:14:29;;;;;;;7.42;5.53;;;;;;;2.98;66.33;96757.15;1765166;81;21124;-54
2020/12/26 10:16:57;;;;;;;7.00;5.12;;;;;;;3.12;66.36;96761.74;1766158;81;21170;-54
2020/12/26 10:19:24;;;;;;;6.75;5.00;;;;;;;3.23;65.99;96761.34;1765772;81;21080;-55
2020/12/26 10:21:52;;;;;;;8.18;5.55;;;;;;;3.35;65.79;96768.55;1766044;80;21608;-55
2020/12/26 10:24:20;;;;;;;5.90;5.00;;;;;;;3.39;65.33;96772.69;1757594;81;21588;-56
2020/12/26 10:26:49;;;;;;;6.50;5.28;;;;;;;3.42;65.40;96780.27;1765541;81;21561;-55
2020/12/26 10:29:16;;;;;;;6.53;5.33;;;;;;;3.44;65.13;96781.48;1747390;79;21576;-56
2020/12/26 10:31:45;;;;;;;7.47;4.40;;;;;;;3.47;65.13;96774.92;1733760;81;21100;-54
2020/12/26 10:34:13;;;;;;;5.40;4.20;;;;;;;3.51;64.77;96768.80;1750803;81;21052;-55
2020/12/26 10:36:42;;;;;;;5.42;4.40;;;;;;;3.46;64.77;96768.97;1765653;81;21056;-55
2020/12/26 10:39:10;;;;;;;5.35;4.35;;;;;;;3.44;64.79;96769.48;1758444;81;21581;-54
2020/12/26 10:41:41;;;;;;;6.25;4.45;;;;;;;3.40;64.68;96775.61;1747531;80;22149;-55
2020/12/26 10:44:09;;;;;;;7.58;5.37;;;;;;;3.39;64.64;96779.52;1751219;81;21142;-54
2020/12/26 10:46:36;;;;;;;7.62;5.80;;;;;;;3.35;64.63;96777.53;1765457;81;21128;-55
2020/12/26 10:49:04;;;;;;;6.72;4.55;;;;;;;3.34;64.72;96773.31;1765428;80;21473;-55
2020/12/26 10:51:32;;;;;;;5.22;4.72;;;;;;;3.33;64.77;96772.09;1757598;80;21056;-55
2020/12/26 10:54:00;;;;;;;6.33;5.20;;;;;;;3.30;64.91;96778.16;1765189;80;22148;-55
2020/12/26 10:56:28;;;;;;;6.67;5.45;;;;;;;3.28;64.83;96776.11;1749877;80;21146;-56
2020/12/26 10:58:56;;;;;;;6.83;5.55;;;;;;;3.27;65.00;96773.14;1767787;80;22281;-55
2020/12/26 11:01:32;;;;;;;7.25;5.83;;;;;;;3.29;64.94;96766.25;1765568;81;21060;-55
2020/12/26 11:04:02;;;;;;;7.47;6.15;;;;;;;3.33;64.85;96768.24;1765762;81;21549;-56
2020/12/26 11:06:33;;;;;;;7.95;6.03;;;;;;;3.35;64.68;96774.96;1742886;81;21432;-55
2020/12/26 11:09:01;;;;;;;6.80;5.80;;;;;;;3.34;64.57;96772.03;1746217;80;21071;-55
2020/12/26 11:11:31;;;;;;;8.15;6.03;;;;;;;3.30;64.28;96777.70;1799819;79;21074;-55
2020/12/26 11:13:59;;;;;;;8.03;6.05;;;;;;;3.18;64.62;96783.77;1816240;78;21566;-56
2020/12/26 11:16:27;;;;;;;8.90;7.00;;;;;;;3.20;64.87;96783.25;1819771;77;21932;-55
2020/12/26 11:18:55;;;;;;;7.63;6.23;;;;;;;3.31;64.90;96778.55;1850000;77;21355;-55
2020/12/26 11:21:23;;;;;;;9.70;6.67;;;;;;;3.41;64.32;96774.73;1789490;77;22007;-55
2020/12/26 11:23:50;;;;;;;6.33;5.33;;;;;;;3.50;64.11;96772.24;1807250;78;21058;-56
2020/12/26 11:26:20;;;;;;;7.80;5.95;;;;;;;3.54;63.34;96776.37;1814975;79;21070;-55
2020/12/26 11:28:48;;;;;;;7.92;6.22;;;;;;;3.54;62.97;96777.66;1816247;79;21103;-55
2020/12/26 11:31:25;;;;;;;10.00;6.62;;;;;;;3.51;62.82;96772.64;1816393;78;21359;-55
2020/12/26 11:33:52;;;;;;;9.93;6.87;;;;;;;3.54;62.71;96788.38;1795381;79;21082;-55
2020/12/26 11:36:23;;;;;;;13.95;7.30;;;;;;;3.57;61.80;96795.92;1816176;79;21047;-56
2020/12/26 11:38:50;;;;;;;9.83;6.67;;;;;;;3.60;61.81;96802.22;1815889;78;21070;-56
2020/12/26 11:41:22;;;;;;;7.58;6.65;;;;;;;3.61;61.63;96798.78;1816273;79;21122;-56
2020/12/26 11:43:49;;;;;;;7.83;6.10;;;;;;;3.58;61.49;96798.89;1821518;77;22380;-55
2020/12/26 11:46:17;;;;;;;9.38;6.30;;;;;;;3.49;61.43;96797.53;1849583;77;21117;-55
2020/12/26 11:48:45;;;;;;;7.37;6.13;;;;;;;3.40;61.91;96797.42;1817868;77;21094;-55
2020/12/26 11:51:13;;;;;;;9.13;6.50;;;;;;;3.45;61.91;96807.08;1816544;79;21063;-57
2020/12/26 11:53:40;;;;;;;9.38;6.80;;;;;;;3.53;61.92;96803.38;1816381;79;21054;-55
2020/12/26 11:56:10;;;;;;;8.95;6.25;;;;;;;3.63;61.92;96795.69;1819129;78;21193;-56
2020/12/26 11:58:39;;;;;;;7.67;6.30;;;;;;;3.69;61.68;96796.74;1829816;77;21134;-64